Time;durP1;ratioP1;P1;durP2;ratioP2;P2;SDS_P1;SDS_P2;PMS_P1;PMS_P2;Temp;Humidity;BMP_temperature;BMP_pressure;BME280_temperature;BME280_humidity;BME280_pressure;Samples;Min_cycle;Max_cycle;Signal;HPM_P1;HPM_P2
2021/08/10 00:01:12;;;;;;;;;;;15.50;98.70;;;;;;5906162;40;20046;-70
2021/08/10 00:05:14;;;;;;;6.05;4.05;;;15.50;98.10;;;;;;5905673;40;19948;-70
2021/08/10 00:09:16;;;;;;;6.10;4.20;;;15.40;98.60;;;;;;5902599;40;20608;-70
2021/08/10 00:13:21;;;;;;;5.88;4.20;;;15.40;99.00;;;;;;5903693;40;20130;-70
2021/08/10 00:17:23;;;;;;;8.38;4.25;;;15.40;98.70;;;;;;5905807;40;20049;-70
2021/08/10 00:21:25;;;;;;;7.45;4.38;;;15.40;99.10;;;;;;5906232;40;20401;-69
2021/08/10 00:25:27;;;;;;;7.25;4.40;;;15.40;98.80;;;;;;5904675;40;20056;-70
2021/08/10 00:29:29;;;;;;;;;;;15.40;98.90;;;;;;5905802;40;20507;-71
2021/08/10 00:33:33;;;;;;;6.60;4.70;;;15.40;98.40;;;;;;5904802;40;19949;-70
2021/08/10 00:37:35;;;;;;;;;;;15.40;98.80;;;;;;5907311;40;20698;-71
2021/08/10 00:41:38;;;;;;;8.75;5.03;;;15.40;98.50;;;;;;5904519;40;19937;-71
2021/08/10 00:45:41;;;;;;;9.98;4.82;;;15.70;99.00;;;;;;5912156;40;20044;-71
2021/08/10 00:49:44;;;;;;;12.18;5.45;;;15.40;99.00;;;;;;5906461;40;20123;-70
2021/08/10 00:53:47;;;;;;;8.65;6.15;;;15.50;99.20;;;;;;5904482;40;20033;-71
2021/08/10 00:57:52;;;;;;;9.38;6.18;;;15.50;99.20;;;;;;5901463;40;20053;-71
2021/08/10 01:01:56;;;;;;;11.23;6.28;;;15.40;99.20;;;;;;5902998;40;20055;-70
2021/08/10 01:06:00;;;;;;;12.60;6.03;;;15.50;99.30;;;;;;5911455;40;20477;-70
2021/08/10 01:10:23;;;;;;;8.82;6.15;;;15.50;99.40;;;;;;5898713;40;20045;-71
2021/08/10 01:14:38;;;;;;;10.90;6.22;;;15.50;99.30;;;;;;5901963;40;20037;-70
2021/08/10 01:18:52;;;;;;;10.27;6.38;;;15.50;99.40;;;;;;5906674;40;20045;-70
2021/08/10 01:22:57;;;;;;;12.52;7.05;;;15.60;99.50;;;;;;5910489;40;20429;-69
2021/08/10 01:27:31;;;;;;;16.48;8.13;;;15.50;99.50;;;;;;5902938;40;20440;-70
2021/08/10 01:31:38;;;;;;;14.55;7.35;;;15.50;99.40;;;;;;5910637;40;20064;-70
2021/08/10 01:35:45;;;;;;;15.15;8.20;;;15.50;99.60;;;;;;5911812;40;20356;-69
2021/08/10 01:39:52;;;;;;;13.23;7.65;;;15.50;99.70;;;;;;5902920;40;20912;-70
2021/08/10 01:44:00;;;;;;;13.07;8.27;;;15.60;99.80;;;;;;5902229;40;20133;-70
2021/08/10 01:48:02;;;;;;;12.43;8.82;;;15.50;99.80;;;;;;5903707;40;20069;-71
2021/08/10 01:52:15;;;;;;;13.05;7.90;;;15.50;99.80;;;;;;5901225;40;20605;-70
2021/08/10 01:56:20;;;;;;;14.57;8.07;;;15.50;99.90;;;;;;5893309;40;20056;-70
2021/08/10 02:00:23;;;;;;;14.85;8.70;;;15.40;99.90;;;;;;5900599;40;20067;-70
2021/08/10 02:04:32;;;;;;;11.55;8.63;;;15.50;99.90;;;;;;5902251;40;20350;-69
2021/08/10 02:08:37;;;;;;;11.38;8.13;;;15.50;99.90;;;;;;5901903;40;20045;-70
2021/08/10 02:12:40;;;;;;;14.68;8.48;;;15.80;99.90;;;;;;5898476;40;20104;-69
2021/08/10 02:16:42;;;;;;;18.02;9.98;;;15.40;99.90;;;;;;5908557;40;20049;-70
2021/08/10 02:20:53;;;;;;;14.20;9.20;;;15.40;99.90;;;;;;5899720;40;20404;-70
2021/08/10 02:25:04;;;;;;;15.95;9.48;;;15.40;99.90;;;;;;5904530;40;20026;-70
2021/08/10 02:29:14;;;;;;;15.85;9.82;;;15.40;99.90;;;;;;5901522;40;20078;-69
2021/08/10 02:33:19;;;;;;;16.40;9.02;;;15.70;99.90;;;;;;5897823;40;20050;-70
2021/08/10 02:37:23;;;;;;;12.75;8.85;;;15.40;99.90;;;;;;5906587;40;20040;-69
2021/08/10 02:41:25;;;;;;;16.63;9.73;;;15.40;99.90;;;;;;5902676;40;20041;-69
2021/08/10 02:45:36;;;;;;;14.43;9.38;;;15.40;99.90;;;;;;5901242;40;20053;-69
2021/08/10 02:49:40;;;;;;;16.08;9.93;;;15.40;99.90;;;;;;5909147;40;20310;-69
2021/08/10 02:53:42;;;;;;;14.93;10.00;;;15.40;99.90;;;;;;5902419;40;20390;-70
2021/08/10 02:57:56;;;;;;;12.48;9.48;;;15.40;99.90;;;;;;5902850;40;20073;-70
2021/08/10 03:02:24;;;;;;;15.52;10.25;;;15.40;99.90;;;;;;5909299;40;20406;-70
2021/08/10 03:06:29;;;;;;;16.55;10.15;;;15.40;99.90;;;;;;5903607;40;20038;-69
2021/08/10 03:10:34;;;;;;;17.67;10.55;;;15.40;99.90;;;;;;5903506;40;20399;-70
2021/08/10 03:14:37;;;;;;;14.18;10.20;;;15.40;99.90;;;;;;5910481;40;20045;-70
2021/08/10 03:18:42;;;;;;;18.45;9.65;;;15.40;99.90;;;;;;5904787;40;20049;-70
2021/08/10 03:22:47;;;;;;;17.85;11.40;;;15.40;99.90;;;;;;5904484;40;20460;-70
2021/08/10 03:26:51;;;;;;;14.93;10.10;;;15.30;99.90;;;;;;5901778;40;20072;-70
2021/08/10 03:30:57;;;;;;;16.23;9.57;;;15.30;99.90;;;;;;5903609;40;20052;-70
2021/08/10 03:34:59;;;;;;;14.93;10.30;;;15.30;99.90;;;;;;5905429;40;20116;-71
2021/08/10 03:39:01;;;;;;;17.67;10.02;;;15.30;99.90;;;;;;5901490;40;20057;-70
2021/08/10 03:43:04;;;;;;;18.30;9.93;;;15.40;99.90;;;;;;5902998;40;20065;-70
2021/08/10 03:47:11;;;;;;;15.73;10.20;;;15.30;99.90;;;;;;5907362;40;20075;-70
2021/08/10 03:51:14;;;;;;;14.20;10.38;;;15.30;99.90;;;;;;5908533;40;20056;-69
2021/08/10 03:55:18;;;;;;;14.88;10.48;;;15.30;99.90;;;;;;5901044;40;20041;-70
2021/08/10 03:59:20;;;;;;;;;;;15.30;99.90;;;;;;5901186;40;20045;-69
2021/08/10 04:03:31;;;;;;;17.98;10.35;;;15.30;99.90;;;;;;5897635;40;19933;-69
2021/08/10 04:07:34;;;;;;;16.55;10.88;;;15.30;99.90;;;;;;5895112;40;20072;-70
2021/08/10 04:11:39;;;;;;;16.15;10.65;;;15.30;99.90;;;;;;5903616;40;20492;-70
2021/08/10 04:15:50;;;;;;;18.23;11.38;;;15.30;99.90;;;;;;5897228;40;20084;-70
2021/08/10 04:19:53;;;;;;;17.05;11.32;;;15.30;99.90;;;;;;5911275;40;20061;-70
2021/08/10 04:23:59;;;;;;;18.77;12.23;;;15.20;99.90;;;;;;5901809;40;20127;-70
2021/08/10 04:28:01;;;;;;;17.40;11.23;;;15.30;99.90;;;;;;5900959;40;20061;-70
2021/08/10 04:32:04;;;;;;;16.13;11.52;;;15.30;99.90;;;;;;5898152;40;20049;-70
2021/08/10 04:36:06;;;;;;;24.85;12.85;;;15.30;99.90;;;;;;5899445;40;20041;-70
2021/08/10 04:40:08;;;;;;;19.17;11.77;;;15.30;99.90;;;;;;5897973;40;20090;-70
2021/08/10 04:44:33;;;;;;;17.85;12.52;;;15.20;99.90;;;;;;5900511;40;20136;-71
2021/08/10 04:48:35;;;;;;;18.70;12.55;;;15.30;99.90;;;;;;5903103;40;20053;-70
2021/08/10 04:52:37;;;;;;;17.90;13.32;;;15.20;99.90;;;;;;5909753;40;20050;-70
2021/08/10 04:56:40;;;;;;;18.00;13.55;;;15.30;99.90;;;;;;5903690;40;20396;-70
2021/08/10 05:00:42;;;;;;;;;;;15.30;99.90;;;;;;5901974;40;20049;-70
2021/08/10 05:04:44;;;;;;;;;;;15.30;99.90;;;;;;5901950;40;19939;-70
2021/08/10 05:08:46;;;;;;;19.00;12.13;;;15.20;99.90;;;;;;5901077;40;19961;-70
2021/08/10 05:12:49;;;;;;;19.33;13.73;;;15.30;99.90;;;;;;5901771;40;20092;-70
2021/08/10 05:16:56;;;;;;;19.23;13.85;;;15.30;99.90;;;;;;5899020;40;20053;-70
2021/08/10 05:20:58;;;;;;;;;;;15.50;99.90;;;;;;5901953;40;20057;-70
2021/08/10 05:25:05;;;;;;;18.13;12.10;;;15.30;99.90;;;;;;5902237;40;19945;-72
2021/08/10 05:29:09;;;;;;;18.70;12.38;;;15.30;99.90;;;;;;5901692;40;20046;-70
2021/08/10 05:33:11;;;;;;;;;;;15.30;99.90;;;;;;5903150;40;20061;-70
2021/08/10 05:37:13;;;;;;;15.82;11.68;;;15.30;99.90;;;;;;5902231;40;19947;-71
2021/08/10 05:41:17;;;;;;;;;;;15.40;99.90;;;;;;5901776;40;20330;-70
2021/08/10 05:45:20;;;;;;;19.90;11.30;;;15.40;99.90;;;;;;5900395;40;19944;-70
2021/08/10 05:49:24;;;;;;;15.85;10.75;;;15.40;99.90;;;;;;5900990;40;20101;-70
2021/08/10 05:53:27;;;;;;;14.27;9.85;;;15.50;99.90;;;;;;5899471;40;20038;-71
2021/08/10 05:57:29;;;;;;;;;;;15.60;99.90;;;;;;5899122;40;20037;-70
2021/08/10 06:01:33;;;;;;;;;;;15.60;99.90;;;;;;5904629;40;20220;-70
2021/08/10 06:05:38;;;;;;;14.02;9.70;;;15.60;99.90;;;;;;5898977;40;19941;-70
2021/08/10 06:09:43;;;;;;;14.88;9.25;;;15.80;99.90;;;;;;5914583;40;20392;-73
2021/08/10 06:13:47;;;;;;;13.85;9.27;;;15.90;99.90;;;;;;5905227;40;20061;-74
2021/08/10 06:17:50;;;;;;;15.73;9.45;;;16.00;99.90;;;;;;5909208;40;20398;-74
2021/08/10 06:21:52;;;;;;;;;;;16.10;99.90;;;;;;5915628;40;20057;-75
2021/08/10 06:25:54;;;;;;;14.82;8.98;;;17.50;99.90;;;;;;5907690;40;20016;-74
2021/08/10 06:29:56;;;;;;;15.52;9.15;;;16.20;99.90;;;;;;5909677;40;20045;-78
2021/08/10 06:33:58;;;;;;;;;;;16.40;99.90;;;;;;5910862;40;20053;-73
2021/08/10 06:38:02;;;;;;;12.60;8.30;;;16.50;99.90;;;;;;5916676;40;19936;-79
2021/08/10 06:42:10;;;;;;;12.13;7.78;;;16.50;99.90;;;;;;5907900;40;20150;-73
2021/08/10 06:46:18;;;;;;;12.32;7.88;;;16.60;99.90;;;;;;5906832;40;20045;-74
2021/08/10 06:50:21;;;;;;;13.10;8.38;;;16.60;99.90;;;;;;5917993;40;20050;-76
2021/08/10 06:54:23;;;;;;;13.82;8.43;;;16.70;99.90;;;;;;5909481;40;20041;-73
2021/08/10 06:58:28;;;;;;;13.18;8.18;;;16.80;99.90;;;;;;5909404;40;20053;-72
2021/08/10 07:02:46;;;;;;;12.57;8.32;;;16.70;99.90;;;;;;5917505;40;20045;-74
2021/08/10 07:06:52;;;;;;;12.07;8.20;;;16.90;99.90;;;;;;5911667;40;20046;-73
2021/08/10 07:10:54;;;;;;;13.20;8.05;;;16.90;99.90;;;;;;5910019;40;20040;-73
2021/08/10 07:14:56;;;;;;;12.93;8.07;;;17.00;99.90;;;;;;5907782;40;20049;-80
2021/08/10 07:18:59;;;;;;;12.63;7.85;;;17.10;99.90;;;;;;5910164;40;20051;-74
2021/08/10 07:23:01;;;;;;;;;;;17.10;99.90;;;;;;5908525;40;20038;-76
2021/08/10 07:27:12;;;;;;;13.07;7.30;;;17.20;99.90;;;;;;5904497;40;19949;-73
2021/08/10 07:31:18;;;;;;;15.43;8.25;;;17.20;99.90;;;;;;5913196;40;20065;-73
2021/08/10 07:35:20;;;;;;;14.75;7.70;;;17.20;99.90;;;;;;5909994;40;20076;-73
2021/08/10 07:39:23;;;;;;;12.35;7.25;;;17.20;99.90;;;;;;5908185;40;20113;-72
2021/08/10 07:43:26;;;;;;;14.18;7.35;;;17.30;99.90;;;;;;5907578;40;20049;-73
2021/08/10 07:47:28;;;;;;;10.90;7.40;;;17.40;99.90;;;;;;5906943;40;20060;-72
2021/08/10 07:51:31;;;;;;;11.18;7.07;;;17.50;99.90;;;;;;5907851;40;20097;-73
2021/08/10 07:55:35;;;;;;;11.48;6.20;;;17.60;99.90;;;;;;5917228;40;20161;-73
2021/08/10 07:59:38;;;;;;;11.68;5.97;;;17.80;99.90;;;;;;5915103;40;20461;-72
2021/08/10 08:03:40;;;;;;;13.38;5.63;;;18.10;99.90;;;;;;5908140;40;20053;-73
2021/08/10 08:07:46;;;;;;;12.10;6.18;;;18.40;99.90;;;;;;5906662;40;20099;-73
2021/08/10 08:11:48;;;;;;;12.30;5.38;;;18.50;99.90;;;;;;5896529;40;20054;-73
2021/08/10 08:15:52;;;;;;;3.45;1.52;;;18.60;99.90;;;;;;5905244;40;20431;-74
2021/08/10 08:19:55;;;;;;;6.13;1.50;;;18.50;99.70;;;;;;5903910;40;20049;-72
2021/08/10 08:23:58;;;;;;;11.48;1.92;;;18.30;99.80;;;;;;5904651;40;20139;-72
2021/08/10 08:28:03;;;;;;;6.38;1.55;;;18.00;99.80;;;;;;5906571;40;20053;-74
2021/08/10 08:32:07;;;;;;;4.25;1.42;;;17.30;99.70;;;;;;5914747;40;20076;-72
2021/08/10 08:36:10;;;;;;;4.85;1.50;;;17.50;99.90;;;;;;5904842;40;20290;-72
2021/08/10 08:40:15;;;;;;;3.80;1.38;;;17.30;99.90;;;;;;5905960;40;20046;-72
2021/08/10 08:44:19;;;;;;;2.95;1.33;;;17.20;99.90;;;;;;5905709;40;20072;-72
2021/08/10 08:48:25;;;;;;;5.10;1.38;;;17.10;99.90;;;;;;5906745;40;20166;-72
2021/08/10 08:52:31;;;;;;;3.60;1.30;;;16.90;99.90;;;;;;5905826;40;21456;-71
2021/08/10 08:56:33;;;;;;;5.78;1.70;;;16.80;99.90;;;;;;5907570;40;20049;-72
2021/08/10 09:00:38;;;;;;;3.70;1.58;;;16.70;99.90;;;;;;5905978;40;20045;-72
2021/08/10 09:04:41;;;;;;;4.43;1.80;;;16.70;99.90;;;;;;5908295;40;20045;-72
2021/08/10 09:08:43;;;;;;;3.88;1.80;;;16.50;99.90;;;;;;5906697;40;20044;-72
2021/08/10 09:12:54;;;;;;;4.43;1.70;;;16.50;99.90;;;;;;5906697;40;20099;-73
2021/08/10 09:17:22;;;;;;;3.67;1.70;;;16.40;99.90;;;;;;5901706;40;20132;-70
2021/08/10 09:21:33;;;;;;;3.70;1.58;;;16.40;99.90;;;;;;5902384;40;20057;-70
2021/08/10 09:25:55;;;;;;;5.50;1.85;;;16.30;99.90;;;;;;5911025;40;20061;-70
2021/08/10 09:30:00;;;;;;;4.43;1.90;;;16.30;99.90;;;;;;5905609;40;20053;-70
2021/08/10 09:34:24;;;;;;;7.85;1.90;;;16.40;99.90;;;;;;5903006;40;20119;-70
2021/08/10 09:38:29;;;;;;;7.47;1.95;;;16.40;99.90;;;;;;5904156;40;20128;-71
2021/08/10 09:42:31;;;;;;;7.35;2.45;;;16.50;99.90;;;;;;5902931;40;20429;-70
2021/08/10 09:46:35;;;;;;;3.60;1.98;;;16.60;99.90;;;;;;5899511;40;20065;-70
2021/08/10 09:50:37;;;;;;;5.65;2.28;;;16.70;99.90;;;;;;5904276;40;20092;-70
2021/08/10 09:54:39;;;;;;;5.20;1.80;;;16.90;99.90;;;;;;5911465;40;20054;-70
2021/08/10 09:58:58;;;;;;;3.72;1.52;;;17.10;99.90;;;;;;5905106;40;20061;-71
2021/08/10 10:03:24;;;;;;;3.00;1.30;;;17.30;99.90;;;;;;5913019;40;20851;-70
2021/08/10 10:07:35;;;;;;;5.07;1.90;;;17.50;99.90;;;;;;5905493;40;20382;-71
2021/08/10 10:11:43;;;;;;;6.25;1.75;;;17.70;99.90;;;;;;5905501;40;20135;-71
2021/08/10 10:15:46;;;;;;;4.50;1.60;;;18.10;99.90;;;;;;5905543;40;20056;-70
2021/08/10 10:19:49;;;;;;;3.60;1.50;;;18.60;99.60;;;;;;5907834;40;20056;-70
2021/08/10 10:23:53;;;;;;;2.83;1.30;;;18.40;99.20;;;;;;5909583;40;20042;-70
2021/08/10 10:27:55;;;;;;;4.80;1.30;;;18.40;98.90;;;;;;5910509;40;20135;-70
2021/08/10 10:31:58;;;;;;;3.58;1.50;;;18.60;99.20;;;;;;5909664;40;20077;-70
2021/08/10 10:36:02;;;;;;;2.67;1.00;;;18.80;99.20;;;;;;5909497;40;20060;-70
2021/08/10 10:40:07;;;;;;;3.10;1.40;;;19.10;98.50;;;;;;5909135;40;20468;-70
2021/08/10 10:44:10;;;;;;;3.58;1.50;;;19.30;98.30;;;;;;5909032;40;20072;-70
2021/08/10 10:48:27;;;;;;;4.35;1.65;;;19.50;97.90;;;;;;5907038;40;20064;-71
2021/08/10 10:52:32;;;;;;;3.67;1.38;;;19.80;98.20;;;;;;5909333;40;20073;-71
2021/08/10 10:56:34;;;;;;;3.42;1.23;;;20.00;97.70;;;;;;5909859;40;20045;-70
2021/08/10 11:00:37;;;;;;;6.75;1.52;;;20.20;97.20;;;;;;5908367;40;20054;-71
2021/08/10 11:04:59;;;;;;;5.43;1.40;;;20.20;97.50;;;;;;5909342;40;20052;-71
2021/08/10 11:09:03;;;;;;;4.38;1.30;;;20.30;97.60;;;;;;5909953;40;20041;-71
2021/08/10 11:13:17;;;;;;;4.00;1.40;;;20.40;97.60;;;;;;5906159;40;20050;-71
2021/08/10 11:17:19;;;;;;;2.75;1.33;;;20.60;97.10;;;;;;5904068;40;20053;-71
2021/08/10 11:21:21;;;;;;;;;;;20.50;97.20;;;;;;5902943;40;21381;-71
2021/08/10 11:25:25;;;;;;;4.45;1.50;;;20.70;97.70;;;;;;5907040;40;19948;-71
2021/08/10 11:29:42;;;;;;;4.53;1.55;;;20.70;97.40;;;;;;5907004;40;20271;-72
2021/08/10 11:33:45;;;;;;;4.95;1.80;;;20.70;98.10;;;;;;5904839;40;20064;-72
2021/08/10 11:38:12;;;;;;;5.38;1.58;;;20.80;97.00;;;;;;5904319;40;20481;-72
2021/08/10 11:42:18;;;;;;;6.80;1.80;;;21.10;97.20;;;;;;5902343;40;20115;-71
2021/08/10 11:46:31;;;;;;;4.13;1.45;;;21.30;95.60;;;;;;5909376;40;20163;-72
2021/08/10 11:50:34;;;;;;;3.78;1.60;;;21.50;96.20;;;;;;5907760;40;20107;-71
2021/08/10 11:54:36;;;;;;;5.22;1.40;;;21.60;96.00;;;;;;5907690;40;20045;-71
2021/08/10 11:58:43;;;;;;;;;;;21.70;95.30;;;;;;5908029;40;20141;-71
2021/08/10 12:02:46;;;;;;;4.05;1.60;;;21.70;97.00;;;;;;5908634;40;19945;-72
2021/08/10 12:06:51;;;;;;;5.32;1.90;;;22.00;96.10;;;;;;5909354;40;20389;-71
2021/08/10 12:10:53;;;;;;;5.55;1.67;;;21.70;95.50;;;;;;5906829;40;20057;-72
2021/08/10 12:14:55;;;;;;;7.57;1.70;;;21.60;95.70;;;;;;5908968;40;20053;-71
2021/08/10 12:18:57;;;;;;;6.13;2.10;;;21.50;96.00;;;;;;5908995;40;20065;-72
2021/08/10 12:23:03;;;;;;;;;;;21.30;96.40;;;;;;5908373;40;20123;-71
2021/08/10 12:27:06;;;;;;;4.15;1.85;;;21.30;97.20;;;;;;5909260;40;20001;-72
2021/08/10 12:31:08;;;;;;;3.60;1.85;;;21.50;95.90;;;;;;5905585;40;20057;-72
2021/08/10 12:35:15;;;;;;;4.57;1.80;;;22.30;96.10;;;;;;5909870;40;20067;-71
2021/08/10 12:39:17;;;;;;;3.65;1.40;;;21.90;95.60;;;;;;5909119;40;20056;-72
2021/08/10 12:43:21;;;;;;;3.75;1.50;;;21.80;95.00;;;;;;5908795;40;20046;-71
2021/08/10 12:47:34;;;;;;;3.40;1.13;;;22.00;95.10;;;;;;5907000;40;20038;-71
2021/08/10 12:52:07;;;;;;;4.05;1.40;;;22.20;94.80;;;;;;5906200;40;20065;-72
2021/08/10 12:56:09;;;;;;;4.03;1.23;;;22.20;94.70;;;;;;5906326;40;20049;-71
2021/08/10 13:00:16;;;;;;;3.85;1.35;;;22.20;94.00;;;;;;5907206;40;20449;-77
2021/08/10 13:04:18;;;;;;;4.07;1.30;;;22.00;93.90;;;;;;5909472;40;20037;-77
2021/08/10 13:08:23;;;;;;;5.43;1.50;;;21.80;94.60;;;;;;5911291;40;20078;-74
2021/08/10 13:12:27;;;;;;;4.03;1.02;;;21.60;94.60;;;;;;5908699;40;20045;-77
2021/08/10 13:16:43;;;;;;;8.95;1.65;;;21.50;94.90;;;;;;5908487;40;20069;-77
2021/08/10 13:20:50;;;;;;;2.72;1.00;;;21.40;95.00;;;;;;5909789;40;20059;-77
2021/08/10 13:25:06;;;;;;;3.50;1.10;;;21.40;95.00;;;;;;5910266;40;20078;-75
2021/08/10 13:29:07;;;;;;;6.13;1.30;;;21.50;95.20;;;;;;5909542;40;20053;-73
2021/08/10 13:33:22;;;;;;;3.88;0.90;;;21.70;95.10;;;;;;5911316;40;20099;-74
2021/08/10 13:37:24;;;;;;;3.67;1.15;;;21.80;94.70;;;;;;5908776;40;20168;-76
2021/08/10 13:41:31;;;;;;;2.75;1.27;;;21.90;93.90;;;;;;5912152;40;20062;-77
2021/08/10 13:45:40;;;;;;;2.85;1.23;;;21.90;93.90;;;;;;5912456;40;20030;-77
2021/08/10 13:49:59;;;;;;;3.88;1.50;;;21.90;93.70;;;;;;5911661;40;20057;-77
2021/08/10 13:54:00;;;;;;;3.08;1.45;;;21.70;93.70;;;;;;5910745;40;20042;-75
2021/08/10 13:58:03;;;;;;;3.65;1.42;;;21.50;93.70;;;;;;5911959;40;20069;-76
2021/08/10 14:02:06;;;;;;;4.97;1.38;;;21.40;94.20;;;;;;5912010;40;20461;-78
2021/08/10 14:06:09;;;;;;;2.60;1.17;;;21.20;94.70;;;;;;5911845;40;20052;-75
2021/08/10 14:10:11;;;;;;;3.65;1.40;;;21.00;94.80;;;;;;5908002;40;20049;-74
2021/08/10 14:14:12;;;;;;;5.38;1.80;;;20.90;94.90;;;;;;5913225;40;20128;-74
2021/08/10 14:18:15;;;;;;;6.28;1.88;;;21.00;94.80;;;;;;5912558;40;20061;-76
2021/08/10 14:22:36;;;;;;;2.63;1.40;;;21.00;94.60;;;;;;5918913;40;20048;-78
2021/08/10 14:26:38;;;;;;;4.30;1.50;;;21.20;94.60;;;;;;5912829;40;20411;-81
2021/08/10 14:30:40;;;;;;;;;;;21.30;94.00;;;;;;5911921;40;20057;-75
2021/08/10 14:34:42;;;;;;;2.95;1.05;;;21.40;95.20;;;;;;5910647;40;19940;-75
2021/08/10 14:38:43;;;;;;;2.40;1.33;;;21.30;94.50;;;;;;5905115;40;20210;-76
2021/08/10 14:42:47;;;;;;;4.25;1.40;;;21.60;94.20;;;;;;5911144;40;20073;-77
2021/08/10 14:46:51;;;;;;;3.75;1.23;;;21.20;94.40;;;;;;5911524;40;20057;-74
2021/08/10 14:50:53;;;;;;;3.75;1.40;;;21.10;94.60;;;;;;5910833;40;20050;-76
2021/08/10 14:54:55;;;;;;;6.35;1.45;;;21.00;94.60;;;;;;5911810;40;20516;-77
2021/08/10 14:58:57;;;;;;;4.60;2.13;;;20.90;94.80;;;;;;5910611;40;20057;-78
2021/08/10 15:02:59;;;;;;;;;;;20.80;95.10;;;;;;5909515;40;20074;-77
2021/08/10 15:07:01;;;;;;;4.50;1.95;;;20.70;95.80;;;;;;5909063;40;19944;-76
2021/08/10 15:11:03;;;;;;;6.03;1.63;;;20.70;95.80;;;;;;5911157;40;20057;-77
2021/08/10 15:15:07;;;;;;;6.18;1.80;;;20.60;95.70;;;;;;5910832;40;20063;-72
2021/08/10 15:19:09;;;;;;;5.13;1.80;;;20.60;95.90;;;;;;5908665;40;20463;-72
2021/08/10 15:23:11;;;;;;;;;;;20.60;96.00;;;;;;5909298;40;20037;-71
2021/08/10 15:27:13;;;;;;;7.57;2.03;;;20.60;96.30;;;;;;5908468;40;19944;-72
2021/08/10 15:31:15;;;;;;;6.47;2.08;;;20.50;96.20;;;;;;5909295;40;20080;-72
2021/08/10 15:35:18;;;;;;;6.90;1.95;;;20.50;96.10;;;;;;5909675;40;20045;-72
2021/08/10 15:39:20;;;;;;;5.38;1.95;;;20.60;96.00;;;;;;5909535;40;20119;-72
2021/08/10 15:43:22;;;;;;;5.20;1.92;;;20.60;96.00;;;;;;5909688;40;20447;-72
2021/08/10 15:47:24;;;;;;;;;;;20.60;96.00;;;;;;5913482;40;20046;-72
2021/08/10 15:51:26;;;;;;;4.38;1.88;;;20.40;96.00;;;;;;5911202;40;20008;-71
2021/08/10 15:55:27;;;;;;;;;;;20.50;96.10;;;;;;5909763;40;20550;-72
2021/08/10 15:59:29;;;;;;;7.70;2.03;;;20.40;96.00;;;;;;5910260;40;19953;-72
2021/08/10 16:03:31;;;;;;;6.97;2.05;;;20.50;96.10;;;;;;5906257;40;20053;-71
2021/08/10 16:07:37;;;;;;;4.63;2.00;;;20.60;95.80;;;;;;5908735;40;20057;-72
2021/08/10 16:11:39;;;;;;;3.88;1.70;;;20.60;95.80;;;;;;5910411;40;20069;-72
2021/08/10 16:15:45;;;;;;;8.90;2.05;;;20.60;95.60;;;;;;5910948;40;20052;-72
2021/08/10 16:19:47;;;;;;;7.57;2.25;;;20.60;95.70;;;;;;5909113;40;20360;-72
2021/08/10 16:23:49;;;;;;;;;;;20.60;95.80;;;;;;5910565;40;20030;-72
2021/08/10 16:27:51;;;;;;;5.60;2.00;;;20.60;96.10;;;;;;5909350;40;20785;-72
2021/08/10 16:31:54;;;;;;;4.85;2.05;;;20.60;95.60;;;;;;5908190;40;20401;-72
2021/08/10 16:35:56;;;;;;;7.97;2.00;;;20.60;95.70;;;;;;5906538;40;20052;-72
2021/08/10 16:39:57;;;;;;;;;;;20.60;96.00;;;;;;5910594;40;20093;-71
2021/08/10 16:43:59;;;;;;;3.97;1.77;;;20.50;96.00;;;;;;5908677;40;20303;-71
2021/08/10 16:48:01;;;;;;;;;;;20.40;96.00;;;;;;5907872;40;20057;-72
2021/08/10 16:52:03;;;;;;;5.53;1.83;;;20.30;96.20;;;;;;5908289;40;20209;-72
2021/08/10 16:56:06;;;;;;;5.45;2.08;;;20.30;96.10;;;;;;5903086;40;20298;-73
2021/08/10 17:00:08;;;;;;;6.90;2.08;;;20.30;96.00;;;;;;5906084;40;20049;-72
2021/08/10 17:04:10;;;;;;;7.50;2.13;;;20.20;96.10;;;;;;5905559;40;20501;-72
2021/08/10 17:08:12;;;;;;;;;;;20.20;96.20;;;;;;5907262;40;20053;-72
2021/08/10 17:12:14;;;;;;;6.70;2.08;;;20.10;96.40;;;;;;5907478;40;19986;-71
2021/08/10 17:16:16;;;;;;;8.18;2.60;;;20.00;96.40;;;;;;5904326;40;20042;-83
2021/08/10 17:20:18;;;;;;;9.05;2.80;;;19.90;96.30;;;;;;5906109;40;20069;-74
2021/08/10 17:24:20;;;;;;;8.90;2.30;;;20.00;96.40;;;;;;5909324;40;20061;-74
2021/08/10 17:28:22;;;;;;;6.03;2.20;;;20.00;96.30;;;;;;5908098;40;20051;-75
2021/08/10 17:32:28;;;;;;;;;;;20.00;95.90;;;;;;5906877;40;20424;-76
2021/08/10 17:36:30;;;;;;;8.75;1.75;;;19.90;96.30;;;;;;5908897;40;19947;-75
2021/08/10 17:40:34;;;;;;;7.72;1.88;;;19.90;95.60;;;;;;5908483;40;20392;-75
2021/08/10 17:44:36;;;;;;;5.00;1.95;;;20.00;95.60;;;;;;5906577;40;20190;-74
2021/08/10 17:48:38;;;;;;;;;;;19.80;95.50;;;;;;5908287;40;20049;-75
2021/08/10 17:52:43;;;;;;;4.95;1.70;;;19.70;96.10;;;;;;5907851;40;20233;-75
2021/08/10 17:56:47;;;;;;;4.32;1.70;;;19.70;95.70;;;;;;5904333;40;20049;-75
2021/08/10 18:00:49;;;;;;;4.80;2.00;;;19.60;95.70;;;;;;5906366;40;20069;-75
2021/08/10 18:04:51;;;;;;;7.65;1.88;;;19.60;95.70;;;;;;5907185;40;20381;-76
2021/08/10 18:08:54;;;;;;;;;;;19.50;95.80;;;;;;5904033;40;20057;-74
2021/08/10 18:12:56;;;;;;;5.25;2.03;;;19.50;96.10;;;;;;5907382;40;19933;-76
2021/08/10 18:16:58;;;;;;;4.85;1.70;;;19.40;96.20;;;;;;5903662;40;20082;-74
2021/08/10 18:21:01;;;;;;;;;;;19.40;96.30;;;;;;5904309;40;20099;-75
2021/08/10 18:25:05;;;;;;;7.47;2.42;;;19.30;96.30;;;;;;5908554;40;20324;-78
2021/08/10 18:29:07;;;;;;;8.57;2.50;;;19.30;96.50;;;;;;5910522;40;20061;-75
2021/08/10 18:33:09;;;;;;;6.93;2.40;;;19.20;96.70;;;;;;5909958;40;20069;-75
2021/08/10 18:37:12;;;;;;;;;;;19.20;96.80;;;;;;5911351;40;20057;-75
2021/08/10 18:41:25;;;;;;;5.63;2.45;;;19.20;96.50;;;;;;5910716;40;20020;-75
2021/08/10 18:45:26;;;;;;;;;;;19.20;96.90;;;;;;5910468;40;20054;-75
2021/08/10 18:49:28;;;;;;;8.93;2.80;;;19.20;96.60;;;;;;5907660;40;19961;-75
2021/08/10 18:53:30;;;;;;;;;;;19.10;97.10;;;;;;5910837;40;20047;-76
2021/08/10 18:57:32;;;;;;;6.72;2.40;;;19.00;96.70;;;;;;5909798;40;20471;-74
2021/08/10 19:01:34;;;;;;;;;;;19.00;97.00;;;;;;5912732;40;20069;-74
2021/08/10 19:05:36;;;;;;;;;;;18.90;96.60;;;;;;5910335;40;20358;-75
2021/08/10 19:09:39;;;;;;;11.98;2.80;;;18.90;96.70;;;;;;5912206;40;20296;-72
2021/08/10 19:13:42;;;;;;;5.70;2.30;;;18.90;97.30;;;;;;5911240;40;20076;-72
2021/08/10 19:17:44;;;;;;;7.22;2.72;;;18.80;97.40;;;;;;5909021;40;20057;-72
2021/08/10 19:21:47;;;;;;;12.25;3.78;;;18.80;97.50;;;;;;5908527;40;20045;-71
2021/08/10 19:25:50;;;;;;;5.95;3.08;;;18.80;97.50;;;;;;5905615;40;20060;-72
2021/08/10 19:29:52;;;;;;;7.40;2.90;;;18.80;97.60;;;;;;5909488;40;20053;-72
2021/08/10 19:33:54;;;;;;;;;;;18.70;97.70;;;;;;5908980;40;20061;-72
2021/08/10 19:37:56;;;;;;;10.05;3.30;;;18.70;97.10;;;;;;5910289;40;20270;-72
2021/08/10 19:41:58;;;;;;;7.80;3.42;;;18.60;97.60;;;;;;5912124;40;20433;-72
2021/08/10 19:46:01;;;;;;;;;;;18.60;97.60;;;;;;5910298;40;20049;-72
2021/08/10 19:50:08;;;;;;;8.45;2.53;;;18.50;97.10;;;;;;5908901;40;19999;-71
2021/08/10 19:54:11;;;;;;;6.97;3.10;;;18.50;97.50;;;;;;5911156;40;20057;-72
2021/08/10 19:58:13;;;;;;;7.57;3.10;;;18.50;97.60;;;;;;5909907;40;20153;-72
2021/08/10 20:02:15;;;;;;;;;;;18.40;97.60;;;;;;5908388;40;20055;-72
2021/08/10 20:06:17;;;;;;;9.02;3.75;;;18.30;97.10;;;;;;5910909;40;19940;-72
2021/08/10 20:10:20;;;;;;;9.13;3.80;;;18.30;97.70;;;;;;5910799;40;20815;-73
2021/08/10 20:14:22;;;;;;;10.38;3.75;;;18.30;97.80;;;;;;5910602;40;20065;-72
2021/08/10 20:18:24;;;;;;;8.93;3.75;;;18.20;97.90;;;;;;5909850;40;20064;-72
2021/08/10 20:22:26;;;;;;;;;;;18.10;97.90;;;;;;5911197;40;20065;-73
2021/08/10 20:26:29;;;;;;;8.90;3.30;;;18.10;97.30;;;;;;5910392;40;19933;-72
2021/08/10 20:30:31;;;;;;;9.75;4.00;;;18.70;98.00;;;;;;5908016;40;20127;-73
2021/08/10 20:34:32;;;;;;;;;;;18.00;98.10;;;;;;5909496;40;20044;-72
2021/08/10 20:38:34;;;;;;;10.73;3.53;;;17.90;97.40;;;;;;5907835;40;20146;-71
2021/08/10 20:42:36;;;;;;;8.10;3.25;;;17.90;97.90;;;;;;5910119;40;20082;-71
2021/08/10 20:46:43;;;;;;;9.55;3.85;;;17.80;98.00;;;;;;5908660;40;20404;-71
2021/08/10 20:50:45;;;;;;;8.23;3.70;;;17.80;98.10;;;;;;5907973;40;20125;-71
2021/08/10 20:54:47;;;;;;;;;;;17.80;98.20;;;;;;5910404;40;20045;-71
2021/08/10 20:58:49;;;;;;;8.25;4.03;;;17.70;97.60;;;;;;5907434;40;19933;-72
2021/08/10 21:02:51;;;;;;;8.73;3.95;;;17.60;98.10;;;;;;5906953;40;20458;-72
2021/08/10 21:06:54;;;;;;;6.40;3.92;;;17.60;98.30;;;;;;5908755;40;20461;-71
2021/08/10 21:10:58;;;;;;;7.85;3.92;;;17.60;98.30;;;;;;5908284;40;20134;-71
2021/08/10 21:15:00;;;;;;;10.88;4.20;;;17.50;98.30;;;;;;5909401;40;20033;-72
2021/08/10 21:19:03;;;;;;;;;;;17.50;98.30;;;;;;5909523;40;20831;-71
2021/08/10 21:23:04;;;;;;;11.75;3.88;;;17.50;97.70;;;;;;5906256;40;19933;-71